createdAt,value
2018-05-11T00:01:22.166Z,21.83
2018-05-11T00:03:48.666Z,21.90
2018-05-11T00:06:15.163Z,21.10
2018-05-11T00:08:42.354Z,20.17
2018-05-11T00:11:08.798Z,21.20
2018-05-11T00:13:35.354Z,20.10
2018-05-11T00:16:01.803Z,19.62
2018-05-11T00:18:28.963Z,19.23
2018-05-11T00:20:56.156Z,18.50
2018-05-11T00:23:22.647Z,19.45
2018-05-11T00:25:49.095Z,18.65
2018-05-11T00:28:15.566Z,18.77
2018-05-11T00:30:42.002Z,19.45
2018-05-11T00:33:08.438Z,20.40
2018-05-11T00:35:34.902Z,21.70
2018-05-11T00:38:01.310Z,21.15
2018-05-11T00:40:27.742Z,20.12
2018-05-11T00:42:54.157Z,20.10
2018-05-11T00:45:20.576Z,20.80
2018-05-11T00:47:46.992Z,21.23
2018-05-11T00:50:13.411Z,21.60
2018-05-11T00:52:40.697Z,22.70
2018-05-11T00:55:20.090Z,22.13
2018-05-11T00:57:46.512Z,24.10
2018-05-11T01:00:12.953Z,26.37
2018-05-11T01:02:40.088Z,28.60
2018-05-11T01:05:06.526Z,29.45
2018-05-11T01:07:32.961Z,30.97
2018-05-11T01:10:00.604Z,31.50
2018-05-11T01:12:27.782Z,31.95
2018-05-11T01:14:54.965Z,32.97
2018-05-11T01:17:22.122Z,33.35
2018-05-11T01:19:49.306Z,32.25
2018-05-11T01:22:15.826Z,33.50
2018-05-11T01:24:42.329Z,30.80
2018-05-11T01:27:08.735Z,29.90
2018-05-11T01:29:35.162Z,31.63
2018-05-11T01:32:01.692Z,30.10
2018-05-11T01:34:28.900Z,29.67
2018-05-11T01:36:55.423Z,30.40
2018-05-11T01:39:22.590Z,29.05
2018-05-11T01:41:49.766Z,27.70
2018-05-11T01:44:16.944Z,28.20
2018-05-11T01:46:43.352Z,27.55
2018-05-11T01:49:09.854Z,27.90
2018-05-11T01:51:37.089Z,27.37
2018-05-11T01:54:03.584Z,27.83
2018-05-11T01:56:30.760Z,27.67
2018-05-11T01:58:58.031Z,27.65
2018-05-11T02:01:24.443Z,29.12
2018-05-11T02:03:50.847Z,29.15
2018-05-11T02:06:17.277Z,28.10
2018-05-11T02:08:44.491Z,28.20
2018-05-11T02:11:11.017Z,28.73
2018-05-11T02:13:38.210Z,28.73
2018-05-11T02:16:04.657Z,27.23
2018-05-11T02:18:31.935Z,28.30
2018-05-11T02:20:58.339Z,27.70
2018-05-11T02:23:24.917Z,26.53
2018-05-11T02:25:51.422Z,25.43
2018-05-11T02:28:17.858Z,23.97
2018-05-11T02:30:45.134Z,23.55
2018-05-11T02:33:12.306Z,23.02
2018-05-11T02:35:39.497Z,22.23
2018-05-11T02:38:05.943Z,23.10
2018-05-11T02:40:32.350Z,22.27
2018-05-11T02:42:58.774Z,22.52
2018-05-11T02:45:25.204Z,23.95
2018-05-11T02:47:51.761Z,22.77
2018-05-11T02:50:19.450Z,23.70
2018-05-11T02:52:45.887Z,24.10
2018-05-11T02:55:13.075Z,24.08
2018-05-11T02:57:39.503Z,23.65
2018-05-11T03:00:05.971Z,24.45
2018-05-11T03:02:33.111Z,22.67
2018-05-11T03:04:59.551Z,22.30
2018-05-11T03:07:26.074Z,23.27
2018-05-11T03:09:52.629Z,23.17
2018-05-11T03:12:19.907Z,23.67
2018-05-11T03:14:46.333Z,23.42
2018-05-11T03:17:13.470Z,25.12
2018-05-11T03:19:40.092Z,24.33
2018-05-11T03:22:07.244Z,25.62
2018-05-11T03:24:33.662Z,25.23
2018-05-11T03:27:00.048Z,24.48
2018-05-11T03:29:27.232Z,25.95
2018-05-11T03:31:55.002Z,26.25
2018-05-11T03:34:21.411Z,26.23
2018-05-11T03:36:47.796Z,27.17
2018-05-11T03:39:14.204Z,28.35
2018-05-11T03:41:40.578Z,28.23
2018-05-11T03:44:07.630Z,28.17
2018-05-11T03:46:34.673Z,27.77
2018-05-11T03:49:01.145Z,27.98
2018-05-11T03:51:28.295Z,29.17
2018-05-11T03:53:55.474Z,27.50
2018-05-11T03:56:22.046Z,27.27
2018-05-11T03:58:49.655Z,27.60
2018-05-11T04:01:28.371Z,29.25
2018-05-11T04:04:07.081Z,29.87
2018-05-11T04:06:45.699Z,29.08
2018-05-11T04:09:12.980Z,30.40
2018-05-11T04:11:39.487Z,29.83
2018-05-11T04:14:06.092Z,29.50
2018-05-11T04:16:32.496Z,29.30
2018-05-11T04:18:59.017Z,30.47
2018-05-11T04:21:27.092Z,29.60
2018-05-11T04:23:53.677Z,29.33
2018-05-11T04:26:20.210Z,30.45
2018-05-11T04:28:47.850Z,30.17
2018-05-11T04:31:14.800Z,31.08
2018-05-11T04:33:41.342Z,31.40
2018-05-11T04:36:08.206Z,31.42
2018-05-11T04:38:35.531Z,31.60
2018-05-11T04:41:01.969Z,33.60
2018-05-11T04:43:28.478Z,31.70
2018-05-11T04:45:55.151Z,30.67
2018-05-11T04:48:22.279Z,30.00
2018-05-11T04:50:49.216Z,31.50
2018-05-11T04:53:15.679Z,32.10
2018-05-11T04:55:42.188Z,31.65
2018-05-11T04:58:08.635Z,31.67
2018-05-11T05:00:35.220Z,30.67
2018-05-11T05:03:01.863Z,31.20
2018-05-11T05:05:28.443Z,31.37
2018-05-11T05:07:55.209Z,31.73
2018-05-11T05:10:22.004Z,33.03
2018-05-11T05:12:49.553Z,32.45
2018-05-11T05:15:16.087Z,32.58
2018-05-11T05:17:42.675Z,31.12
2018-05-11T05:20:09.136Z,31.70
2018-05-11T05:22:35.810Z,30.75
2018-05-11T05:25:02.299Z,33.47
2018-05-11T05:27:29.474Z,35.00
2018-05-11T05:29:58.165Z,35.10
2018-05-11T05:32:24.956Z,36.83
2018-05-11T05:34:51.546Z,37.42
2018-05-11T05:37:19.130Z,37.25
2018-05-11T05:39:45.920Z,36.22
2018-05-11T05:42:12.358Z,37.67
2018-05-11T05:44:39.709Z,39.10
2018-05-11T05:47:06.531Z,36.30
2018-05-11T05:49:34.903Z,38.70
2018-05-11T05:52:02.342Z,36.53
2018-05-11T05:54:30.023Z,37.55
2018-05-11T05:56:57.289Z,37.20
2018-05-11T05:59:24.941Z,38.58
2018-05-11T06:01:52.901Z,38.22
2018-05-11T06:04:20.484Z,38.38
2018-05-11T06:06:47.034Z,39.40
2018-05-11T06:09:14.103Z,39.25
2018-05-11T06:11:41.404Z,39.13
2018-05-11T06:14:08.688Z,39.25
2018-05-11T06:16:35.434Z,38.05
2018-05-11T06:19:02.317Z,38.88
2018-05-11T06:21:28.942Z,39.47
2018-05-11T06:23:55.725Z,39.13
2018-05-11T06:26:22.597Z,39.25
2018-05-11T06:28:49.465Z,38.90
2018-05-11T06:31:16.187Z,38.80
2018-05-11T06:33:43.916Z,39.10
2018-05-11T06:36:10.436Z,38.78
2018-05-11T06:38:38.171Z,37.70
2018-05-11T06:41:05.438Z,40.22
2018-05-11T06:43:34.723Z,39.10
2018-05-11T06:46:02.050Z,41.08
2018-05-11T06:48:28.591Z,39.22
2018-05-11T06:50:55.036Z,39.63
2018-05-11T06:53:21.824Z,38.45
2018-05-11T06:55:49.247Z,36.47
2018-05-11T06:58:15.812Z,36.60
2018-05-11T07:00:42.644Z,37.67
2018-05-11T07:03:09.357Z,37.60
2018-05-11T07:05:37.325Z,37.87
2018-05-11T07:08:03.869Z,36.80
2018-05-11T07:10:30.353Z,35.97
2018-05-11T07:12:57.112Z,35.28
2018-05-11T07:15:24.026Z,35.22
2018-05-11T07:17:52.477Z,35.22
2018-05-11T07:20:19.686Z,36.17
2018-05-11T07:22:46.506Z,36.58
2018-05-11T07:25:13.870Z,35.38
2018-05-11T07:27:42.364Z,35.65
2018-05-11T07:30:09.643Z,36.00
2018-05-11T07:32:36.138Z,36.13
2018-05-11T07:35:03.333Z,36.88
2018-05-11T07:37:30.783Z,38.55
2018-05-11T07:39:57.571Z,38.75
2018-05-11T07:42:24.197Z,38.70
2018-05-11T07:44:50.885Z,37.75
2018-05-11T07:47:17.981Z,36.67
2018-05-11T07:49:45.915Z,35.55
2018-05-11T07:52:12.577Z,34.88
2018-05-11T07:54:39.751Z,35.10
2018-05-11T07:57:06.656Z,34.08
2018-05-11T07:59:33.173Z,35.10
2018-05-11T08:01:59.659Z,34.20
2018-05-11T08:04:26.401Z,35.03
2018-05-11T08:06:52.843Z,32.53
2018-05-11T08:09:20.123Z,31.00
2018-05-11T08:11:47.315Z,27.90
2018-05-11T08:14:14.468Z,29.97
2018-05-11T08:16:40.939Z,27.17
2018-05-11T08:19:07.403Z,27.05
2018-05-11T08:21:33.831Z,30.85
2018-05-11T08:24:01.000Z,29.35
2018-05-11T08:26:28.283Z,29.52
2018-05-11T08:28:55.510Z,28.38
2018-05-11T08:31:21.961Z,27.30
2018-05-11T08:33:48.473Z,28.50
2018-05-11T08:36:15.737Z,28.73
2018-05-11T08:38:42.245Z,28.95
2018-05-11T08:41:08.665Z,30.60
2018-05-11T08:43:35.109Z,28.83
2018-05-11T08:46:02.969Z,29.07
2018-05-11T08:48:29.452Z,28.70
2018-05-11T08:50:56.655Z,28.73
2018-05-11T08:53:23.192Z,26.75
2018-05-11T08:55:49.828Z,26.90
2018-05-11T08:58:16.195Z,27.48
2018-05-11T09:00:43.330Z,28.12
2018-05-11T09:03:09.787Z,29.30
2018-05-11T09:05:36.215Z,29.30
2018-05-11T09:08:02.854Z,28.50
2018-05-11T09:10:29.302Z,28.87
2018-05-11T09:12:55.818Z,28.90
2018-05-11T09:15:22.255Z,29.67
2018-05-11T09:17:48.636Z,29.58
2018-05-11T09:20:15.088Z,30.85
2018-05-11T09:22:41.509Z,30.30
2018-05-11T09:25:08.486Z,28.45
2018-05-11T09:27:34.892Z,29.12
2018-05-11T09:30:01.856Z,28.87
2018-05-11T09:32:29.151Z,30.08
2018-05-11T09:34:56.432Z,30.23
2018-05-11T09:37:22.987Z,29.42
2018-05-11T09:39:49.559Z,31.17
2018-05-11T09:42:15.952Z,28.98
2018-05-11T09:44:42.434Z,30.20
2018-05-11T09:47:09.029Z,29.40
2018-05-11T09:49:35.561Z,29.00
2018-05-11T09:52:02.809Z,29.20
2018-05-11T09:54:29.260Z,30.20
2018-05-11T09:56:55.713Z,28.62
2018-05-11T09:59:22.111Z,28.17
2018-05-11T10:01:49.421Z,29.63
2018-05-11T10:04:15.792Z,28.05
2018-05-11T10:06:42.232Z,28.03
2018-05-11T10:09:08.693Z,28.15
2018-05-11T10:11:35.255Z,27.40
2018-05-11T10:14:01.687Z,28.17
2018-05-11T10:16:28.177Z,28.02
2018-05-11T10:18:54.582Z,26.92
2018-05-11T10:21:21.857Z,26.87
2018-05-11T10:23:49.096Z,27.67
2018-05-11T10:26:15.538Z,27.40
2018-05-11T10:28:42.012Z,26.30
2018-05-11T10:31:08.386Z,24.12
2018-05-11T10:33:35.669Z,23.05
2018-05-11T10:36:02.951Z,23.27
2018-05-11T10:38:29.410Z,25.12
2018-05-11T10:40:55.962Z,24.55
2018-05-11T10:43:23.170Z,24.60
2018-05-11T10:45:49.694Z,23.80
2018-05-11T10:48:16.968Z,23.27
2018-05-11T10:50:44.166Z,23.02
2018-05-11T10:53:10.700Z,23.35
2018-05-11T10:55:37.974Z,23.60
2018-05-11T10:58:05.204Z,23.27
2018-05-11T11:00:31.707Z,23.65
2018-05-11T11:02:59.005Z,23.27
2018-05-11T11:05:25.418Z,22.23
2018-05-11T11:07:52.570Z,23.05
2018-05-11T11:10:18.982Z,21.65
2018-05-11T11:12:45.418Z,23.15
2018-05-11T11:15:12.626Z,21.27
2018-05-11T11:17:39.174Z,21.73
2018-05-11T11:20:05.956Z,22.00
2018-05-11T11:22:32.363Z,20.62
2018-05-11T11:24:59.535Z,19.95
2018-05-11T11:27:26.720Z,18.30
2018-05-11T11:29:53.273Z,17.45
2018-05-11T11:32:20.486Z,18.10
2018-05-11T11:34:46.984Z,19.20
2018-05-11T11:37:13.343Z,17.52
2018-05-11T11:39:40.539Z,17.10
2018-05-11T11:42:06.972Z,17.90
2018-05-11T11:44:34.765Z,18.17
2018-05-11T11:47:01.992Z,19.20
2018-05-11T11:49:28.420Z,21.20
2018-05-11T11:51:54.966Z,20.80
2018-05-11T11:54:21.438Z,20.73
2018-05-11T11:56:47.982Z,20.42
2018-05-11T11:59:14.395Z,21.20
2018-05-11T12:01:41.723Z,19.33
2018-05-11T12:04:08.366Z,20.02
2018-05-11T12:06:35.743Z,19.10
2018-05-11T12:09:03.174Z,18.40
2018-05-11T12:11:29.529Z,19.60
2018-05-11T12:13:55.932Z,19.15
2018-05-11T12:16:23.109Z,18.50
2018-05-11T12:18:49.530Z,19.48
2018-05-11T12:21:15.983Z,19.25
2018-05-11T12:23:42.469Z,18.85
2018-05-11T12:26:08.817Z,18.10
2018-05-11T12:28:36.203Z,18.60
2018-05-11T12:31:03.477Z,17.40
2018-05-11T12:33:30.700Z,17.00
2018-05-11T12:35:57.209Z,17.95
2018-05-11T12:38:24.584Z,16.35
2018-05-11T12:40:51.764Z,16.70
2018-05-11T12:43:18.232Z,17.87
2018-05-11T12:45:44.772Z,17.48
2018-05-11T12:48:11.200Z,18.30
2018-05-11T12:50:37.608Z,18.30
2018-05-11T12:53:04.781Z,18.08
2018-05-11T12:55:31.310Z,20.00
2018-05-11T12:57:58.486Z,17.85
2018-05-11T13:00:24.950Z,19.20
2018-05-11T13:02:51.397Z,20.25
2018-05-11T13:05:18.583Z,20.07
2018-05-11T13:07:45.014Z,19.87
2018-05-11T13:10:12.341Z,21.23
2018-05-11T13:12:38.769Z,21.48
2018-05-11T13:15:05.379Z,20.88
2018-05-11T13:17:31.972Z,21.80
2018-05-11T13:19:59.167Z,21.58
2018-05-11T13:22:25.599Z,21.70
2018-05-11T13:24:52.802Z,22.13
2018-05-11T13:27:19.211Z,21.98
2018-05-11T13:29:46.385Z,21.15
2018-05-11T13:32:12.967Z,20.90
2018-05-11T13:34:39.729Z,20.23
2018-05-11T13:37:06.153Z,21.77
2018-05-11T13:39:32.663Z,20.30
2018-05-11T13:41:59.130Z,20.95
2018-05-11T13:44:25.587Z,20.43
2018-05-11T13:46:52.066Z,19.30
2018-05-11T13:49:18.568Z,20.05
2018-05-11T13:51:45.742Z,19.55
2018-05-11T13:54:13.028Z,20.35
2018-05-11T13:56:39.536Z,19.80
2018-05-11T13:59:05.980Z,20.00
2018-05-11T14:01:32.440Z,18.90
2018-05-11T14:03:58.844Z,20.12
2018-05-11T14:06:26.106Z,19.90
2018-05-11T14:08:53.307Z,19.15
2018-05-11T14:11:19.737Z,19.37
2018-05-11T14:13:46.894Z,18.60
2018-05-11T14:16:13.315Z,17.23
2018-05-11T14:18:39.760Z,18.25
2018-05-11T14:21:06.235Z,19.10
2018-05-11T14:23:32.682Z,17.37
2018-05-11T14:25:59.151Z,17.60
2018-05-11T14:28:25.757Z,17.27
2018-05-11T14:30:53.522Z,18.05
2018-05-11T14:33:20.029Z,19.25
2018-05-11T14:35:46.555Z,19.73
2018-05-11T14:38:13.833Z,19.50
2018-05-11T14:40:41.414Z,19.10
2018-05-11T14:43:07.863Z,19.35
2018-05-11T14:45:34.362Z,19.20
2018-05-11T14:48:00.885Z,19.65
2018-05-11T14:50:28.367Z,20.00
2018-05-11T14:52:55.636Z,19.30
2018-05-11T14:55:22.874Z,18.40
2018-05-11T14:57:49.370Z,19.35
2018-05-11T15:00:16.518Z,18.27
2018-05-11T15:02:42.954Z,18.98
2018-05-11T15:05:09.558Z,19.10
2018-05-11T15:07:36.712Z,20.10
2018-05-11T15:10:04.230Z,19.60
2018-05-11T15:12:30.689Z,19.20
2018-05-11T15:14:57.139Z,20.17
2018-05-11T15:17:23.539Z,20.27
2018-05-11T15:19:50.019Z,20.00
2018-05-11T15:22:17.197Z,20.30
2018-05-11T15:24:43.643Z,19.30
2018-05-11T15:27:10.079Z,18.77
2018-05-11T15:29:37.337Z,18.92
2018-05-11T15:32:04.778Z,19.23
2018-05-11T15:34:31.222Z,19.73
2018-05-11T15:36:58.379Z,20.40
2018-05-11T15:39:25.579Z,20.43
2018-05-11T15:41:52.021Z,20.77
2018-05-11T15:44:19.181Z,20.00
2018-05-11T15:46:46.380Z,21.55
2018-05-11T15:49:12.824Z,21.08
2018-05-11T15:51:39.993Z,20.58
2018-05-11T15:54:07.271Z,20.67
2018-05-11T15:56:34.415Z,18.90
2018-05-11T15:59:00.938Z,17.70
2018-05-11T16:01:27.361Z,18.40
2018-05-11T16:03:53.767Z,18.90
2018-05-11T16:06:20.271Z,17.83
2018-05-11T16:08:46.727Z,17.98
2018-05-11T16:11:13.882Z,18.55
2018-05-11T16:13:40.354Z,18.40
2018-05-11T16:16:07.553Z,18.50
2018-05-11T16:18:33.955Z,18.25
2018-05-11T16:21:00.375Z,18.73
2018-05-11T16:23:26.778Z,19.92
2018-05-11T16:25:53.232Z,20.20
2018-05-11T16:28:19.724Z,21.70
2018-05-11T16:30:46.104Z,21.30
2018-05-11T16:33:13.038Z,21.83
2018-05-11T16:35:39.508Z,23.10
2018-05-11T16:38:05.977Z,23.38
2018-05-11T16:40:32.724Z,30.33
2018-05-11T16:42:59.177Z,26.55
2018-05-11T16:45:25.720Z,27.67
2018-05-11T16:47:52.879Z,27.33
2018-05-11T16:50:19.377Z,26.65
2018-05-11T16:52:45.907Z,27.60
2018-05-11T16:55:13.184Z,27.30
2018-05-11T16:57:40.333Z,28.98
2018-05-11T17:00:07.579Z,25.65
2018-05-11T17:02:34.045Z,26.08
2018-05-11T17:05:02.005Z,26.80
2018-05-11T17:07:28.469Z,27.20
2018-05-11T17:09:54.966Z,25.90
2018-05-11T17:12:22.262Z,26.02
2018-05-11T17:14:49.415Z,26.23
2018-05-11T17:17:16.592Z,26.75
2018-05-11T17:19:43.727Z,26.40
2018-05-11T17:22:10.193Z,26.10
2018-05-11T17:24:36.798Z,26.95
2018-05-11T17:27:03.228Z,25.55
2018-05-11T17:29:29.708Z,27.20
2018-05-11T17:31:56.903Z,27.25
2018-05-11T17:34:23.333Z,29.70
2018-05-11T17:36:50.496Z,30.27
2018-05-11T17:39:17.823Z,29.58
2018-05-11T17:41:44.375Z,29.85
2018-05-11T17:44:12.739Z,30.90
2018-05-11T17:46:39.191Z,30.30
2018-05-11T17:49:06.390Z,31.58
2018-05-11T17:51:32.813Z,32.10
2018-05-11T17:54:00.208Z,33.13
2018-05-11T17:56:26.755Z,34.40
2018-05-11T17:58:53.324Z,32.92
2018-05-11T18:01:19.851Z,34.08
2018-05-11T18:03:46.313Z,34.72
2018-05-11T18:06:13.916Z,34.08
2018-05-11T18:08:42.315Z,34.75
2018-05-11T18:11:10.344Z,34.35
2018-05-11T18:13:37.176Z,34.47
2018-05-11T18:16:04.547Z,34.92
2018-05-11T18:18:31.555Z,35.53
2018-05-11T18:20:58.389Z,34.33
2018-05-11T18:23:25.862Z,34.10
2018-05-11T18:25:53.544Z,35.00
2018-05-11T18:28:20.028Z,35.10
2018-05-11T18:30:46.560Z,34.40
2018-05-11T18:33:13.837Z,34.00
2018-05-11T18:35:40.598Z,33.45
2018-05-11T18:38:07.156Z,34.90
2018-05-11T18:40:33.714Z,35.33
2018-05-11T18:43:00.686Z,34.40
2018-05-11T18:45:28.548Z,34.42
2018-05-11T18:47:56.359Z,33.37
2018-05-11T18:50:23.018Z,36.03
2018-05-11T18:52:49.493Z,37.10
2018-05-11T18:55:16.648Z,34.40
2018-05-11T18:57:44.028Z,34.00
2018-05-11T19:00:11.195Z,33.05
2018-05-11T19:02:38.405Z,35.45
2018-05-11T19:05:05.241Z,34.20
2018-05-11T19:07:31.741Z,32.67
2018-05-11T19:09:58.221Z,30.90
2018-05-11T19:12:26.076Z,32.08
2018-05-11T19:14:55.287Z,31.03
2018-05-11T19:17:22.158Z,31.05
2018-05-11T19:19:49.909Z,30.50
2018-05-11T19:22:16.674Z,29.52
2018-05-11T19:24:43.736Z,30.67
2018-05-11T19:27:10.416Z,32.17
2018-05-11T19:29:36.944Z,30.30
2018-05-11T19:32:04.538Z,30.10
2018-05-11T19:34:31.161Z,34.58
2018-05-11T19:36:58.064Z,32.45
2018-05-11T19:39:24.731Z,31.80
2018-05-11T19:41:51.391Z,30.88
2018-05-11T19:44:18.159Z,32.30
2018-05-11T19:46:44.644Z,30.98
2018-05-11T19:49:12.670Z,31.70
2018-05-11T19:51:39.879Z,34.13
2018-05-11T19:54:06.849Z,31.45
2018-05-11T19:56:33.910Z,30.97
2018-05-11T19:59:00.708Z,31.17
2018-05-11T20:01:27.338Z,30.75
2018-05-11T20:03:54.708Z,31.87
2018-05-11T20:07:30.113Z,31.12
2018-05-11T20:09:56.747Z,31.83
2018-05-11T20:12:24.747Z,30.35
2018-05-11T20:14:51.927Z,31.25
2018-05-11T20:17:19.124Z,31.30
2018-05-11T20:19:46.674Z,30.80
2018-05-11T20:22:13.949Z,31.48
2018-05-11T20:24:41.163Z,30.73
2018-05-11T20:27:08.508Z,32.00
2018-05-11T20:29:35.170Z,30.42
2018-05-11T20:32:01.740Z,32.50
2018-05-11T20:34:28.480Z,31.60
2018-05-11T20:36:54.989Z,32.70
2018-05-11T20:39:21.513Z,32.40
2018-05-11T20:41:48.155Z,33.72
2018-05-11T20:44:15.431Z,32.75
2018-05-11T20:46:41.993Z,33.42
2018-05-11T20:49:08.646Z,33.15
2018-05-11T20:51:36.692Z,33.63
2018-05-11T20:54:03.302Z,34.63
2018-05-11T20:56:30.259Z,34.83
2018-05-11T20:58:57.433Z,34.50
2018-05-11T21:01:24.600Z,34.25
2018-05-11T21:03:51.814Z,34.50
2018-05-11T21:06:18.344Z,34.72
2018-05-11T21:08:45.007Z,34.17
2018-05-11T21:11:12.383Z,36.70
2018-05-11T21:13:38.895Z,33.80
2018-05-11T21:16:05.419Z,34.30
2018-05-11T21:18:31.879Z,33.00
2018-05-11T21:20:58.343Z,33.13
2018-05-11T21:23:24.760Z,32.65
2018-05-11T21:25:52.757Z,33.55
2018-05-11T21:28:19.272Z,32.80
2018-05-11T21:30:47.141Z,33.40
2018-05-11T21:33:13.762Z,33.05
2018-05-11T21:35:40.227Z,33.30
2018-05-11T21:38:06.726Z,33.78
2018-05-11T21:40:33.235Z,35.25
2018-05-11T21:42:59.791Z,33.63
2018-05-11T21:45:26.976Z,33.95
2018-05-11T21:47:53.523Z,34.88
2018-05-11T21:50:20.902Z,34.28
2018-05-11T21:52:47.367Z,33.53
2018-05-11T21:55:14.023Z,36.10
2018-05-11T21:57:40.469Z,34.92
2018-05-11T22:00:07.053Z,32.75
2018-05-11T22:02:33.590Z,32.13
2018-05-11T22:05:00.732Z,32.55
2018-05-11T22:07:27.183Z,32.47
2018-05-11T22:09:53.729Z,32.92
2018-05-11T22:12:20.237Z,33.90
2018-05-11T22:14:46.792Z,32.85
2018-05-11T22:17:13.226Z,32.63
2018-05-11T22:19:39.809Z,33.77
2018-05-11T22:22:06.947Z,33.40
2018-05-11T22:24:33.981Z,34.58
2018-05-11T22:27:00.506Z,35.67
2018-05-11T22:29:27.779Z,35.53
2018-05-11T22:31:55.003Z,35.30
2018-05-11T22:34:21.511Z,36.25
2018-05-11T22:36:48.794Z,34.97
2018-05-11T22:39:15.345Z,34.95
2018-05-11T22:41:42.575Z,34.97
2018-05-11T22:44:09.003Z,34.10
2018-05-11T22:46:35.446Z,33.75
2018-05-11T22:49:01.986Z,32.73
2018-05-11T22:51:28.433Z,32.40
2018-05-11T22:53:55.718Z,32.28
2018-05-11T22:56:22.950Z,32.63
2018-05-11T22:58:49.380Z,34.50
2018-05-11T23:01:15.848Z,35.10
2018-05-11T23:03:42.294Z,34.55
2018-05-11T23:06:09.316Z,33.17
2018-05-11T23:08:36.471Z,34.17
2018-05-11T23:11:03.778Z,34.00
2018-05-11T23:13:32.333Z,35.17
2018-05-11T23:15:58.837Z,35.22
2018-05-11T23:18:26.054Z,34.00
2018-05-11T23:20:52.469Z,33.65
2018-05-11T23:23:19.621Z,33.15
2018-05-11T23:25:46.093Z,33.70
2018-05-11T23:28:13.265Z,34.53
2018-05-11T23:30:40.473Z,35.00
2018-05-11T23:33:06.867Z,36.20
2018-05-11T23:35:33.295Z,34.72
2018-05-11T23:37:59.705Z,34.05
2018-05-11T23:40:26.879Z,32.80
2018-05-11T23:42:54.021Z,32.00
2018-05-11T23:45:21.198Z,33.63
2018-05-11T23:47:48.347Z,32.85
2018-05-11T23:50:14.766Z,33.60
2018-05-11T23:52:41.190Z,33.00
2018-05-11T23:55:08.350Z,32.55
2018-05-11T23:57:36.366Z,32.90
